sensor_id;sensor_type;location;lat;lon;timestamp;P1;durP1;ratioP1;P2;durP2;ratioP2
60478;SDS011;46321;48.398;11.754;2023-07-13T00:00:09;8.45;;;5.28;;
60478;SDS011;46321;48.398;11.754;2023-07-13T00:02:35;10.00;;;5.45;;
60478;SDS011;46321;48.398;11.754;2023-07-13T00:05:01;7.47;;;5.00;;
60478;SDS011;46321;48.398;11.754;2023-07-13T00:07:27;8.20;;;5.30;;
60478;SDS011;46321;48.398;11.754;2023-07-13T00:09:52;8.33;;;5.40;;
60478;SDS011;46321;48.398;11.754;2023-07-13T00:12:22;9.57;;;5.25;;
60478;SDS011;46321;48.398;11.754;2023-07-13T00:14:49;7.05;;;4.70;;
60478;SDS011;46321;48.398;11.754;2023-07-13T00:17:15;7.00;;;5.18;;
60478;SDS011;46321;48.398;11.754;2023-07-13T00:19:40;8.55;;;5.25;;
60478;SDS011;46321;48.398;11.754;2023-07-13T00:22:06;8.98;;;5.13;;
60478;SDS011;46321;48.398;11.754;2023-07-13T00:24:31;6.05;;;4.65;;
60478;SDS011;46321;48.398;11.754;2023-07-13T00:26:56;10.20;;;5.00;;
60478;SDS011;46321;48.398;11.754;2023-07-13T00:29:22;6.77;;;4.77;;
60478;SDS011;46321;48.398;11.754;2023-07-13T00:31:47;8.95;;;4.90;;
60478;SDS011;46321;48.398;11.754;2023-07-13T00:34:12;10.48;;;5.10;;
60478;SDS011;46321;48.398;11.754;2023-07-13T00:36:38;6.90;;;4.35;;
60478;SDS011;46321;48.398;11.754;2023-07-13T00:39:03;7.20;;;4.63;;
60478;SDS011;46321;48.398;11.754;2023-07-13T00:41:29;7.65;;;4.53;;
60478;SDS011;46321;48.398;11.754;2023-07-13T00:43:54;7.70;;;4.40;;
60478;SDS011;46321;48.398;11.754;2023-07-13T00:46:21;6.45;;;4.53;;
60478;SDS011;46321;48.398;11.754;2023-07-13T00:48:49;8.00;;;4.22;;
60478;SDS011;46321;48.398;11.754;2023-07-13T00:51:16;7.05;;;4.20;;
60478;SDS011;46321;48.398;11.754;2023-07-13T00:53:46;4.95;;;3.72;;
60478;SDS011;46321;48.398;11.754;2023-07-13T00:56:12;5.50;;;3.95;;
60478;SDS011;46321;48.398;11.754;2023-07-13T00:58:38;5.78;;;3.90;;
60478;SDS011;46321;48.398;11.754;2023-07-13T01:01:03;5.10;;;3.38;;
60478;SDS011;46321;48.398;11.754;2023-07-13T01:03:28;7.57;;;3.53;;
60478;SDS011;46321;48.398;11.754;2023-07-13T01:05:54;7.68;;;3.55;;
60478;SDS011;46321;48.398;11.754;2023-07-13T01:08:20;6.32;;;3.78;;
60478;SDS011;46321;48.398;11.754;2023-07-13T01:10:53;5.93;;;3.25;;
60478;SDS011;46321;48.398;11.754;2023-07-13T01:13:19;5.40;;;3.55;;
60478;SDS011;46321;48.398;11.754;2023-07-13T01:15:46;4.78;;;3.55;;
60478;SDS011;46321;48.398;11.754;2023-07-13T01:18:14;5.38;;;3.65;;
60478;SDS011;46321;48.398;11.754;2023-07-13T01:20:59;5.70;;;4.05;;
60478;SDS011;46321;48.398;11.754;2023-07-13T01:23:26;5.25;;;3.05;;
60478;SDS011;46321;48.398;11.754;2023-07-13T01:25:53;5.93;;;3.78;;
60478;SDS011;46321;48.398;11.754;2023-07-13T01:28:20;4.90;;;3.20;;
60478;SDS011;46321;48.398;11.754;2023-07-13T01:30:46;5.15;;;3.53;;
60478;SDS011;46321;48.398;11.754;2023-07-13T01:33:16;5.60;;;3.47;;
60478;SDS011;46321;48.398;11.754;2023-07-13T01:35:43;7.85;;;4.00;;
60478;SDS011;46321;48.398;11.754;2023-07-13T01:38:10;6.72;;;3.78;;
60478;SDS011;46321;48.398;11.754;2023-07-13T01:40:39;7.03;;;3.70;;
60478;SDS011;46321;48.398;11.754;2023-07-13T01:43:04;5.72;;;3.40;;
60478;SDS011;46321;48.398;11.754;2023-07-13T01:45:29;4.55;;;3.28;;
60478;SDS011;46321;48.398;11.754;2023-07-13T01:47:55;6.50;;;3.70;;
60478;SDS011;46321;48.398;11.754;2023-07-13T01:50:20;6.00;;;3.95;;
60478;SDS011;46321;48.398;11.754;2023-07-13T01:52:46;4.95;;;3.80;;
60478;SDS011;46321;48.398;11.754;2023-07-13T01:55:11;9.43;;;3.70;;
60478;SDS011;46321;48.398;11.754;2023-07-13T01:57:36;5.60;;;3.60;;
60478;SDS011;46321;48.398;11.754;2023-07-13T02:00:06;6.45;;;3.92;;
60478;SDS011;46321;48.398;11.754;2023-07-13T02:02:32;5.78;;;3.47;;
60478;SDS011;46321;48.398;11.754;2023-07-13T02:04:57;7.53;;;3.42;;
60478;SDS011;46321;48.398;11.754;2023-07-13T02:07:23;8.02;;;3.60;;
60478;SDS011;46321;48.398;11.754;2023-07-13T02:09:48;8.43;;;3.83;;
60478;SDS011;46321;48.398;11.754;2023-07-13T02:12:13;4.95;;;3.55;;
60478;SDS011;46321;48.398;11.754;2023-07-13T02:14:39;5.95;;;3.30;;
60478;SDS011;46321;48.398;11.754;2023-07-13T02:17:04;4.25;;;3.72;;
60478;SDS011;46321;48.398;11.754;2023-07-13T02:19:30;4.85;;;3.53;;
60478;SDS011;46321;48.398;11.754;2023-07-13T02:21:55;4.38;;;3.33;;
60478;SDS011;46321;48.398;11.754;2023-07-13T02:24:21;5.57;;;3.33;;
60478;SDS011;46321;48.398;11.754;2023-07-13T02:26:46;5.93;;;3.42;;
60478;SDS011;46321;48.398;11.754;2023-07-13T02:29:11;7.20;;;3.83;;
60478;SDS011;46321;48.398;11.754;2023-07-13T02:31:37;4.00;;;3.13;;
60478;SDS011;46321;48.398;11.754;2023-07-13T02:34:03;7.90;;;3.55;;
60478;SDS011;46321;48.398;11.754;2023-07-13T02:36:29;5.90;;;3.22;;
60478;SDS011;46321;48.398;11.754;2023-07-13T02:38:55;6.63;;;3.75;;
60478;SDS011;46321;48.398;11.754;2023-07-13T02:41:20;7.38;;;3.50;;
60478;SDS011;46321;48.398;11.754;2023-07-13T02:43:45;5.72;;;3.70;;
60478;SDS011;46321;48.398;11.754;2023-07-13T02:46:11;5.60;;;3.78;;
60478;SDS011;46321;48.398;11.754;2023-07-13T02:48:37;11.30;;;3.63;;
60478;SDS011;46321;48.398;11.754;2023-07-13T02:51:03;5.97;;;4.05;;
60478;SDS011;46321;48.398;11.754;2023-07-13T02:53:29;9.13;;;3.83;;
60478;SDS011;46321;48.398;11.754;2023-07-13T02:55:55;8.02;;;4.18;;
60478;SDS011;46321;48.398;11.754;2023-07-13T02:58:20;5.17;;;3.80;;
60478;SDS011;46321;48.398;11.754;2023-07-13T03:00:46;8.75;;;3.80;;
60478;SDS011;46321;48.398;11.754;2023-07-13T03:03:12;6.13;;;3.42;;
60478;SDS011;46321;48.398;11.754;2023-07-13T03:05:40;6.70;;;3.50;;
60478;SDS011;46321;48.398;11.754;2023-07-13T03:08:10;6.32;;;3.63;;
60478;SDS011;46321;48.398;11.754;2023-07-13T03:10:36;7.07;;;3.42;;
60478;SDS011;46321;48.398;11.754;2023-07-13T03:13:01;5.03;;;3.35;;
60478;SDS011;46321;48.398;11.754;2023-07-13T03:15:27;5.93;;;3.45;;
60478;SDS011;46321;48.398;11.754;2023-07-13T03:17:52;5.28;;;3.63;;
60478;SDS011;46321;48.398;11.754;2023-07-13T03:20:18;6.63;;;3.95;;
60478;SDS011;46321;48.398;11.754;2023-07-13T03:22:44;5.47;;;3.88;;
60478;SDS011;46321;48.398;11.754;2023-07-13T03:25:09;10.32;;;4.07;;
60478;SDS011;46321;48.398;11.754;2023-07-13T03:27:35;7.45;;;4.32;;
60478;SDS011;46321;48.398;11.754;2023-07-13T03:30:01;7.18;;;4.28;;
60478;SDS011;46321;48.398;11.754;2023-07-13T03:32:27;7.15;;;4.28;;
60478;SDS011;46321;48.398;11.754;2023-07-13T03:34:52;6.78;;;4.20;;
60478;SDS011;46321;48.398;11.754;2023-07-13T03:37:18;6.13;;;4.10;;
60478;SDS011;46321;48.398;11.754;2023-07-13T03:39:43;8.73;;;4.30;;
60478;SDS011;46321;48.398;11.754;2023-07-13T03:42:08;7.90;;;4.17;;
60478;SDS011;46321;48.398;11.754;2023-07-13T03:44:34;7.63;;;4.63;;
60478;SDS011;46321;48.398;11.754;2023-07-13T03:47:00;8.38;;;4.55;;
60478;SDS011;46321;48.398;11.754;2023-07-13T03:49:25;11.90;;;5.27;;
60478;SDS011;46321;48.398;11.754;2023-07-13T03:51:50;6.57;;;4.70;;
60478;SDS011;46321;48.398;11.754;2023-07-13T03:54:15;5.67;;;4.27;;
60478;SDS011;46321;48.398;11.754;2023-07-13T03:56:41;6.73;;;4.60;;
60478;SDS011;46321;48.398;11.754;2023-07-13T03:59:06;9.33;;;4.63;;
60478;SDS011;46321;48.398;11.754;2023-07-13T04:01:31;7.15;;;4.50;;
60478;SDS011;46321;48.398;11.754;2023-07-13T04:03:57;9.70;;;4.93;;
60478;SDS011;46321;48.398;11.754;2023-07-13T04:06:23;9.10;;;5.00;;
60478;SDS011;46321;48.398;11.754;2023-07-13T04:08:52;9.02;;;5.10;;
60478;SDS011;46321;48.398;11.754;2023-07-13T04:11:20;6.95;;;4.43;;
60478;SDS011;46321;48.398;11.754;2023-07-13T04:13:46;12.05;;;5.15;;
60478;SDS011;46321;48.398;11.754;2023-07-13T04:16:13;11.13;;;5.13;;
60478;SDS011;46321;48.398;11.754;2023-07-13T04:18:39;5.63;;;4.75;;
60478;SDS011;46321;48.398;11.754;2023-07-13T04:21:04;7.32;;;4.70;;
60478;SDS011;46321;48.398;11.754;2023-07-13T04:23:30;7.32;;;4.85;;
60478;SDS011;46321;48.398;11.754;2023-07-13T04:25:55;9.77;;;5.00;;
60478;SDS011;46321;48.398;11.754;2023-07-13T04:28:21;7.75;;;4.65;;
60478;SDS011;46321;48.398;11.754;2023-07-13T04:30:48;8.30;;;4.72;;
60478;SDS011;46321;48.398;11.754;2023-07-13T04:33:13;7.15;;;4.63;;
60478;SDS011;46321;48.398;11.754;2023-07-13T04:35:39;11.88;;;5.07;;
60478;SDS011;46321;48.398;11.754;2023-07-13T04:38:04;7.63;;;4.57;;
60478;SDS011;46321;48.398;11.754;2023-07-13T04:40:29;10.20;;;5.32;;
60478;SDS011;46321;48.398;11.754;2023-07-13T04:42:55;8.32;;;5.10;;
60478;SDS011;46321;48.398;11.754;2023-07-13T04:45:21;9.77;;;4.78;;
60478;SDS011;46321;48.398;11.754;2023-07-13T04:47:46;6.80;;;4.60;;
60478;SDS011;46321;48.398;11.754;2023-07-13T04:50:12;10.63;;;4.60;;
60478;SDS011;46321;48.398;11.754;2023-07-13T04:52:43;7.22;;;4.70;;
60478;SDS011;46321;48.398;11.754;2023-07-13T04:55:09;7.25;;;4.32;;
60478;SDS011;46321;48.398;11.754;2023-07-13T04:57:34;8.20;;;4.57;;
60478;SDS011;46321;48.398;11.754;2023-07-13T04:59:59;7.43;;;4.97;;
60478;SDS011;46321;48.398;11.754;2023-07-13T05:02:26;6.45;;;4.30;;
60478;SDS011;46321;48.398;11.754;2023-07-13T05:04:53;7.78;;;4.90;;
60478;SDS011;46321;48.398;11.754;2023-07-13T05:07:18;8.30;;;5.00;;
60478;SDS011;46321;48.398;11.754;2023-07-13T05:09:43;8.17;;;4.67;;
60478;SDS011;46321;48.398;11.754;2023-07-13T05:12:09;8.93;;;5.03;;
60478;SDS011;46321;48.398;11.754;2023-07-13T05:14:34;10.95;;;6.00;;
60478;SDS011;46321;48.398;11.754;2023-07-13T05:17:00;11.05;;;6.30;;
60478;SDS011;46321;48.398;11.754;2023-07-13T05:19:25;8.57;;;5.05;;
60478;SDS011;46321;48.398;11.754;2023-07-13T05:21:51;8.23;;;4.55;;
60478;SDS011;46321;48.398;11.754;2023-07-13T05:24:16;9.10;;;4.82;;
60478;SDS011;46321;48.398;11.754;2023-07-13T05:26:42;9.05;;;4.97;;
60478;SDS011;46321;48.398;11.754;2023-07-13T05:29:07;7.05;;;4.50;;
60478;SDS011;46321;48.398;11.754;2023-07-13T05:31:32;7.13;;;4.90;;
60478;SDS011;46321;48.398;11.754;2023-07-13T05:33:57;5.87;;;4.33;;
60478;SDS011;46321;48.398;11.754;2023-07-13T05:36:23;10.97;;;4.60;;
60478;SDS011;46321;48.398;11.754;2023-07-13T05:38:48;8.25;;;4.22;;
60478;SDS011;46321;48.398;11.754;2023-07-13T05:41:13;9.73;;;4.70;;
60478;SDS011;46321;48.398;11.754;2023-07-13T05:43:38;8.27;;;4.53;;
60478;SDS011;46321;48.398;11.754;2023-07-13T05:46:04;10.30;;;5.10;;
60478;SDS011;46321;48.398;11.754;2023-07-13T05:48:29;6.93;;;4.27;;
60478;SDS011;46321;48.398;11.754;2023-07-13T05:50:54;13.23;;;6.50;;
60478;SDS011;46321;48.398;11.754;2023-07-13T05:53:19;9.40;;;5.77;;
60478;SDS011;46321;48.398;11.754;2023-07-13T05:55:45;7.00;;;4.50;;
60478;SDS011;46321;48.398;11.754;2023-07-13T05:58:13;4.78;;;3.97;;
60478;SDS011;46321;48.398;11.754;2023-07-13T06:00:38;5.78;;;4.18;;
60478;SDS011;46321;48.398;11.754;2023-07-13T06:03:04;6.65;;;3.85;;
60478;SDS011;46321;48.398;11.754;2023-07-13T06:05:31;6.15;;;4.40;;
60478;SDS011;46321;48.398;11.754;2023-07-13T06:07:58;6.82;;;4.30;;
60478;SDS011;46321;48.398;11.754;2023-07-13T06:10:24;9.10;;;4.38;;
60478;SDS011;46321;48.398;11.754;2023-07-13T06:12:49;7.32;;;4.03;;
60478;SDS011;46321;48.398;11.754;2023-07-13T06:15:15;6.28;;;3.83;;
60478;SDS011;46321;48.398;11.754;2023-07-13T06:17:41;6.65;;;3.40;;
60478;SDS011;46321;48.398;11.754;2023-07-13T06:20:06;5.70;;;3.65;;
60478;SDS011;46321;48.398;11.754;2023-07-13T06:22:32;6.70;;;3.53;;
60478;SDS011;46321;48.398;11.754;2023-07-13T06:24:57;3.73;;;2.97;;
60478;SDS011;46321;48.398;11.754;2023-07-13T06:27:22;8.13;;;3.10;;
60478;SDS011;46321;48.398;11.754;2023-07-13T06:29:48;7.47;;;3.10;;
60478;SDS011;46321;48.398;11.754;2023-07-13T06:32:13;4.13;;;2.83;;
60478;SDS011;46321;48.398;11.754;2023-07-13T06:34:38;5.67;;;2.60;;
60478;SDS011;46321;48.398;11.754;2023-07-13T06:37:04;3.93;;;2.43;;
60478;SDS011;46321;48.398;11.754;2023-07-13T06:39:29;3.85;;;2.72;;
60478;SDS011;46321;48.398;11.754;2023-07-13T06:41:54;4.03;;;2.50;;
60478;SDS011;46321;48.398;11.754;2023-07-13T06:44:20;8.05;;;3.17;;
60478;SDS011;46321;48.398;11.754;2023-07-13T06:46:45;4.45;;;2.72;;
60478;SDS011;46321;48.398;11.754;2023-07-13T06:49:10;4.68;;;2.25;;
60478;SDS011;46321;48.398;11.754;2023-07-13T06:51:36;8.52;;;2.28;;
60478;SDS011;46321;48.398;11.754;2023-07-13T06:54:01;3.57;;;2.43;;
60478;SDS011;46321;48.398;11.754;2023-07-13T06:56:26;4.43;;;2.13;;
60478;SDS011;46321;48.398;11.754;2023-07-13T06:58:51;3.05;;;2.33;;
60478;SDS011;46321;48.398;11.754;2023-07-13T07:01:17;4.13;;;2.33;;
60478;SDS011;46321;48.398;11.754;2023-07-13T07:03:42;6.70;;;2.03;;
60478;SDS011;46321;48.398;11.754;2023-07-13T07:06:15;2.83;;;2.13;;
60478;SDS011;46321;48.398;11.754;2023-07-13T07:08:45;6.43;;;2.33;;
60478;SDS011;46321;48.398;11.754;2023-07-13T07:11:15;2.63;;;1.98;;
60478;SDS011;46321;48.398;11.754;2023-07-13T07:13:43;2.90;;;2.00;;
60478;SDS011;46321;48.398;11.754;2023-07-13T07:16:08;3.13;;;2.00;;
60478;SDS011;46321;48.398;11.754;2023-07-13T07:18:33;2.90;;;2.10;;
60478;SDS011;46321;48.398;11.754;2023-07-13T07:20:59;7.28;;;2.30;;
60478;SDS011;46321;48.398;11.754;2023-07-13T07:23:24;7.20;;;2.90;;
60478;SDS011;46321;48.398;11.754;2023-07-13T07:25:49;5.45;;;2.42;;
60478;SDS011;46321;48.398;11.754;2023-07-13T07:28:16;7.18;;;2.22;;
60478;SDS011;46321;48.398;11.754;2023-07-13T07:30:45;4.75;;;2.28;;
60478;SDS011;46321;48.398;11.754;2023-07-13T07:33:11;7.28;;;2.35;;
60478;SDS011;46321;48.398;11.754;2023-07-13T07:35:36;7.23;;;2.33;;
60478;SDS011;46321;48.398;11.754;2023-07-13T07:38:01;3.40;;;2.15;;
60478;SDS011;46321;48.398;11.754;2023-07-13T07:40:27;4.90;;;2.15;;
60478;SDS011;46321;48.398;11.754;2023-07-13T07:42:52;3.78;;;2.28;;
60478;SDS011;46321;48.398;11.754;2023-07-13T07:45:18;2.08;;;1.75;;
60478;SDS011;46321;48.398;11.754;2023-07-13T07:47:43;4.10;;;1.90;;
60478;SDS011;46321;48.398;11.754;2023-07-13T07:50:09;3.40;;;1.93;;
60478;SDS011;46321;48.398;11.754;2023-07-13T07:52:35;5.53;;;2.38;;
60478;SDS011;46321;48.398;11.754;2023-07-13T07:55:00;2.75;;;1.98;;
60478;SDS011;46321;48.398;11.754;2023-07-13T07:57:25;3.33;;;2.30;;
60478;SDS011;46321;48.398;11.754;2023-07-13T07:59:51;4.05;;;2.15;;
60478;SDS011;46321;48.398;11.754;2023-07-13T08:02:16;4.72;;;2.38;;
60478;SDS011;46321;48.398;11.754;2023-07-13T08:04:41;4.07;;;2.47;;
60478;SDS011;46321;48.398;11.754;2023-07-13T08:07:07;4.80;;;2.15;;
60478;SDS011;46321;48.398;11.754;2023-07-13T08:09:32;3.53;;;2.20;;
60478;SDS011;46321;48.398;11.754;2023-07-13T08:11:58;2.40;;;2.00;;
60478;SDS011;46321;48.398;11.754;2023-07-13T08:14:23;6.70;;;2.67;;
60478;SDS011;46321;48.398;11.754;2023-07-13T08:16:49;3.70;;;2.30;;
60478;SDS011;46321;48.398;11.754;2023-07-13T08:19:14;4.30;;;1.88;;
60478;SDS011;46321;48.398;11.754;2023-07-13T08:21:40;6.32;;;3.05;;
60478;SDS011;46321;48.398;11.754;2023-07-13T08:24:07;9.73;;;5.88;;
60478;SDS011;46321;48.398;11.754;2023-07-13T08:26:32;3.58;;;2.97;;
60478;SDS011;46321;48.398;11.754;2023-07-13T08:28:58;3.30;;;2.25;;
60478;SDS011;46321;48.398;11.754;2023-07-13T08:31:23;10.77;;;2.13;;
60478;SDS011;46321;48.398;11.754;2023-07-13T08:33:48;7.97;;;2.65;;
60478;SDS011;46321;48.398;11.754;2023-07-13T08:36:14;4.82;;;1.90;;
60478;SDS011;46321;48.398;11.754;2023-07-13T08:38:39;4.97;;;1.88;;
60478;SDS011;46321;48.398;11.754;2023-07-13T08:41:12;4.88;;;2.13;;
60478;SDS011;46321;48.398;11.754;2023-07-13T08:43:40;3.33;;;1.95;;
60478;SDS011;46321;48.398;11.754;2023-07-13T08:49:05;3.22;;;2.00;;
60478;SDS011;46321;48.398;11.754;2023-07-13T08:54:04;5.27;;;1.93;;
60478;SDS011;46321;48.398;11.754;2023-07-13T08:56:36;3.22;;;1.50;;
60478;SDS011;46321;48.398;11.754;2023-07-13T08:59:06;7.18;;;1.50;;
60478;SDS011;46321;48.398;11.754;2023-07-13T09:01:47;2.63;;;1.80;;
60478;SDS011;46321;48.398;11.754;2023-07-13T09:05:08;3.45;;;2.38;;
60478;SDS011;46321;48.398;11.754;2023-07-13T09:10:48;4.05;;;1.83;;
60478;SDS011;46321;48.398;11.754;2023-07-13T09:16:04;3.63;;;2.03;;
60478;SDS011;46321;48.398;11.754;2023-07-13T09:23:32;3.17;;;1.60;;
60478;SDS011;46321;48.398;11.754;2023-07-13T09:28:48;3.03;;;1.80;;
60478;SDS011;46321;48.398;11.754;2023-07-13T09:31:24;4.43;;;2.03;;
60478;SDS011;46321;48.398;11.754;2023-07-13T09:33:57;5.05;;;2.05;;
60478;SDS011;46321;48.398;11.754;2023-07-13T09:36:25;4.20;;;1.70;;
60478;SDS011;46321;48.398;11.754;2023-07-13T09:39:03;3.35;;;1.90;;
60478;SDS011;46321;48.398;11.754;2023-07-13T09:44:33;2.25;;;1.67;;
60478;SDS011;46321;48.398;11.754;2023-07-13T09:47:00;3.42;;;1.80;;
60478;SDS011;46321;48.398;11.754;2023-07-13T09:49:28;4.10;;;1.77;;
60478;SDS011;46321;48.398;11.754;2023-07-13T09:52:03;4.28;;;1.50;;
60478;SDS011;46321;48.398;11.754;2023-07-13T09:54:35;4.20;;;1.73;;
60478;SDS011;46321;48.398;11.754;2023-07-13T09:57:02;2.40;;;1.70;;
60478;SDS011;46321;48.398;11.754;2023-07-13T09:59:33;7.30;;;2.47;;
60478;SDS011;46321;48.398;11.754;2023-07-13T10:01:59;4.35;;;3.30;;
60478;SDS011;46321;48.398;11.754;2023-07-13T10:04:30;4.68;;;2.20;;
60478;SDS011;46321;48.398;11.754;2023-07-13T10:07:04;8.23;;;1.92;;
60478;SDS011;46321;48.398;11.754;2023-07-13T10:09:34;2.28;;;1.60;;
60478;SDS011;46321;48.398;11.754;2023-07-13T10:11:59;2.13;;;1.75;;
60478;SDS011;46321;48.398;11.754;2023-07-13T10:14:24;2.37;;;1.67;;
60478;SDS011;46321;48.398;11.754;2023-07-13T10:16:56;2.85;;;1.80;;
60478;SDS011;46321;48.398;11.754;2023-07-13T10:19:27;3.28;;;1.63;;
60478;SDS011;46321;48.398;11.754;2023-07-13T10:21:56;6.82;;;1.73;;
60478;SDS011;46321;48.398;11.754;2023-07-13T10:24:25;5.55;;;1.75;;
60478;SDS011;46321;48.398;11.754;2023-07-13T10:27:10;2.80;;;1.65;;
60478;SDS011;46321;48.398;11.754;2023-07-13T10:32:21;2.25;;;1.70;;
60478;SDS011;46321;48.398;11.754;2023-07-13T10:34:49;2.80;;;1.70;;
60478;SDS011;46321;48.398;11.754;2023-07-13T10:37:22;5.45;;;1.90;;
60478;SDS011;46321;48.398;11.754;2023-07-13T10:39:50;3.10;;;1.63;;
60478;SDS011;46321;48.398;11.754;2023-07-13T10:42:23;2.97;;;1.60;;
60478;SDS011;46321;48.398;11.754;2023-07-13T10:44:53;1.95;;;1.50;;
60478;SDS011;46321;48.398;11.754;2023-07-13T10:47:19;4.70;;;1.73;;
60478;SDS011;46321;48.398;11.754;2023-07-13T10:49:44;3.20;;;1.60;;
60478;SDS011;46321;48.398;11.754;2023-07-13T10:58:21;1.85;;;1.65;;
60478;SDS011;46321;48.398;11.754;2023-07-13T11:00:57;3.97;;;1.80;;
60478;SDS011;46321;48.398;11.754;2023-07-13T11:03:49;3.05;;;1.50;;
60478;SDS011;46321;48.398;11.754;2023-07-13T11:08:59;4.07;;;1.98;;
60478;SDS011;46321;48.398;11.754;2023-07-13T11:11:43;3.78;;;1.75;;
60478;SDS011;46321;48.398;11.754;2023-07-13T11:14:30;6.22;;;1.70;;
60478;SDS011;46321;48.398;11.754;2023-07-13T11:19:54;7.50;;;1.77;;
60478;SDS011;46321;48.398;11.754;2023-07-13T11:22:49;3.92;;;1.70;;
60478;SDS011;46321;48.398;11.754;2023-07-13T11:27:50;2.92;;;1.52;;
60478;SDS011;46321;48.398;11.754;2023-07-13T11:33:11;2.03;;;1.60;;
60478;SDS011;46321;48.398;11.754;2023-07-13T11:36:05;3.47;;;1.63;;
60478;SDS011;46321;48.398;11.754;2023-07-13T11:41:17;2.28;;;1.73;;
60478;SDS011;46321;48.398;11.754;2023-07-13T11:43:44;5.45;;;2.10;;
60478;SDS011;46321;48.398;11.754;2023-07-13T11:46:24;3.42;;;1.63;;
60478;SDS011;46321;48.398;11.754;2023-07-13T11:48:52;4.00;;;1.63;;
60478;SDS011;46321;48.398;11.754;2023-07-13T11:51:28;2.70;;;1.77;;
60478;SDS011;46321;48.398;11.754;2023-07-13T11:53:56;3.10;;;1.88;;
60478;SDS011;46321;48.398;11.754;2023-07-13T11:56:26;4.10;;;2.00;;
60478;SDS011;46321;48.398;11.754;2023-07-13T11:58:53;2.65;;;1.75;;
60478;SDS011;46321;48.398;11.754;2023-07-13T12:01:22;6.97;;;1.92;;
60478;SDS011;46321;48.398;11.754;2023-07-13T12:03:50;2.33;;;1.48;;
60478;SDS011;46321;48.398;11.754;2023-07-13T12:06:28;4.88;;;1.98;;
60478;SDS011;46321;48.398;11.754;2023-07-13T12:08:56;2.83;;;1.70;;
60478;SDS011;46321;48.398;11.754;2023-07-13T12:11:25;3.83;;;1.70;;
60478;SDS011;46321;48.398;11.754;2023-07-13T12:13:51;3.67;;;1.70;;
60478;SDS011;46321;48.398;11.754;2023-07-13T12:16:23;5.72;;;1.52;;
60478;SDS011;46321;48.398;11.754;2023-07-13T12:18:52;1.48;;;1.38;;
60478;SDS011;46321;48.398;11.754;2023-07-13T12:21:19;4.55;;;1.60;;
60478;SDS011;46321;48.398;11.754;2023-07-13T12:23:47;3.90;;;1.60;;
60478;SDS011;46321;48.398;11.754;2023-07-13T12:26:14;2.85;;;1.33;;
60478;SDS011;46321;48.398;11.754;2023-07-13T12:28:53;3.15;;;1.45;;
60478;SDS011;46321;48.398;11.754;2023-07-13T12:33:55;2.80;;;1.88;;
60478;SDS011;46321;48.398;11.754;2023-07-13T12:36:22;3.63;;;2.55;;
60478;SDS011;46321;48.398;11.754;2023-07-13T12:38:48;4.47;;;2.40;;
60478;SDS011;46321;48.398;11.754;2023-07-13T12:41:14;4.70;;;1.75;;
60478;SDS011;46321;48.398;11.754;2023-07-13T12:43:40;5.22;;;3.30;;
60478;SDS011;46321;48.398;11.754;2023-07-13T12:46:19;1.50;;;1.40;;
60478;SDS011;46321;48.398;11.754;2023-07-13T12:48:53;2.22;;;1.48;;
60478;SDS011;46321;48.398;11.754;2023-07-13T12:51:21;4.78;;;1.80;;
60478;SDS011;46321;48.398;11.754;2023-07-13T12:53:50;2.50;;;1.30;;
60478;SDS011;46321;48.398;11.754;2023-07-13T12:56:22;2.78;;;1.42;;
60478;SDS011;46321;48.398;11.754;2023-07-13T12:58:49;6.63;;;1.80;;
60478;SDS011;46321;48.398;11.754;2023-07-13T13:01:20;3.63;;;1.70;;
60478;SDS011;46321;48.398;11.754;2023-07-13T13:03:47;1.50;;;1.27;;
60478;SDS011;46321;48.398;11.754;2023-07-13T13:08:44;5.00;;;1.63;;
60478;SDS011;46321;48.398;11.754;2023-07-13T13:11:11;3.72;;;1.70;;
60478;SDS011;46321;48.398;11.754;2023-07-13T13:13:36;2.27;;;1.27;;
60478;SDS011;46321;48.398;11.754;2023-07-13T13:16:20;1.77;;;1.50;;
60478;SDS011;46321;48.398;11.754;2023-07-13T13:18:56;3.30;;;1.50;;
60478;SDS011;46321;48.398;11.754;2023-07-13T13:21:24;1.83;;;1.50;;
60478;SDS011;46321;48.398;11.754;2023-07-13T13:23:51;2.25;;;1.48;;
60478;SDS011;46321;48.398;11.754;2023-07-13T13:26:18;3.15;;;1.60;;
60478;SDS011;46321;48.398;11.754;2023-07-13T13:28:44;4.47;;;1.55;;
60478;SDS011;46321;48.398;11.754;2023-07-13T13:31:10;2.30;;;1.65;;
60478;SDS011;46321;48.398;11.754;2023-07-13T13:33:38;2.22;;;1.40;;
60478;SDS011;46321;48.398;11.754;2023-07-13T13:36:12;4.80;;;1.50;;
60478;SDS011;46321;48.398;11.754;2023-07-13T13:38:42;3.33;;;1.80;;
60478;SDS011;46321;48.398;11.754;2023-07-13T13:41:09;1.70;;;1.50;;
60478;SDS011;46321;48.398;11.754;2023-07-13T13:43:35;4.47;;;1.63;;
60478;SDS011;46321;48.398;11.754;2023-07-13T13:46:01;2.10;;;1.43;;
60478;SDS011;46321;48.398;11.754;2023-07-13T13:48:29;7.05;;;5.03;;
60478;SDS011;46321;48.398;11.754;2023-07-13T13:50:57;1.90;;;1.70;;
60478;SDS011;46321;48.398;11.754;2023-07-13T13:53:24;4.05;;;1.63;;
60478;SDS011;46321;48.398;11.754;2023-07-13T13:55:50;2.90;;;1.50;;
60478;SDS011;46321;48.398;11.754;2023-07-13T13:58:17;3.40;;;1.60;;
60478;SDS011;46321;48.398;11.754;2023-07-13T14:00:42;4.70;;;2.40;;
60478;SDS011;46321;48.398;11.754;2023-07-13T14:03:14;4.10;;;2.47;;
60478;SDS011;46321;48.398;11.754;2023-07-13T14:05:42;3.45;;;2.10;;
60478;SDS011;46321;48.398;11.754;2023-07-13T14:08:20;2.90;;;1.50;;
60478;SDS011;46321;48.398;11.754;2023-07-13T14:10:46;2.45;;;1.77;;
60478;SDS011;46321;48.398;11.754;2023-07-13T14:13:18;3.67;;;1.80;;
60478;SDS011;46321;48.398;11.754;2023-07-13T14:15:51;2.88;;;2.38;;
60478;SDS011;46321;48.398;11.754;2023-07-13T14:18:17;2.70;;;1.88;;
60478;SDS011;46321;48.398;11.754;2023-07-13T14:20:46;3.03;;;2.08;;
60478;SDS011;46321;48.398;11.754;2023-07-13T14:23:14;5.50;;;2.22;;
60478;SDS011;46321;48.398;11.754;2023-07-13T14:25:41;3.25;;;1.77;;
60478;SDS011;46321;48.398;11.754;2023-07-13T14:28:28;2.30;;;1.70;;
60478;SDS011;46321;48.398;11.754;2023-07-13T14:30:53;4.18;;;1.40;;
60478;SDS011;46321;48.398;11.754;2023-07-13T14:33:21;1.80;;;1.40;;
60478;SDS011;46321;48.398;11.754;2023-07-13T14:35:47;1.83;;;1.40;;
60478;SDS011;46321;48.398;11.754;2023-07-13T14:38:13;3.95;;;1.60;;
60478;SDS011;46321;48.398;11.754;2023-07-13T14:40:41;1.92;;;1.50;;
60478;SDS011;46321;48.398;11.754;2023-07-13T14:43:11;2.55;;;2.10;;
60478;SDS011;46321;48.398;11.754;2023-07-13T14:45:39;2.15;;;1.77;;
60478;SDS011;46321;48.398;11.754;2023-07-13T14:48:19;2.60;;;1.73;;
60478;SDS011;46321;48.398;11.754;2023-07-13T14:50:50;2.22;;;1.60;;
60478;SDS011;46321;48.398;11.754;2023-07-13T14:53:18;3.03;;;1.52;;
60478;SDS011;46321;48.398;11.754;2023-07-13T14:55:44;3.45;;;1.60;;
60478;SDS011;46321;48.398;11.754;2023-07-13T14:58:09;2.07;;;1.57;;
60478;SDS011;46321;48.398;11.754;2023-07-13T15:00:35;3.53;;;1.70;;
60478;SDS011;46321;48.398;11.754;2023-07-13T15:03:02;4.07;;;1.80;;
60478;SDS011;46321;48.398;11.754;2023-07-13T15:05:29;2.38;;;1.63;;
60478;SDS011;46321;48.398;11.754;2023-07-13T15:07:57;3.65;;;1.63;;
60478;SDS011;46321;48.398;11.754;2023-07-13T15:10:28;2.33;;;1.60;;
60478;SDS011;46321;48.398;11.754;2023-07-13T15:12:59;4.85;;;1.90;;
60478;SDS011;46321;48.398;11.754;2023-07-13T15:15:28;5.00;;;2.83;;
60478;SDS011;46321;48.398;11.754;2023-07-13T15:17:57;2.70;;;1.88;;
60478;SDS011;46321;48.398;11.754;2023-07-13T15:20:27;2.58;;;1.50;;
60478;SDS011;46321;48.398;11.754;2023-07-13T15:22:55;3.05;;;1.70;;
60478;SDS011;46321;48.398;11.754;2023-07-13T15:25:22;3.45;;;1.60;;